Time;durP1;ratioP1;P1;durP2;ratioP2;P2;SDS_P1;SDS_P2;PMS_P1;PMS_P2;Temp;Humidity;BMP_temperature;BMP_pressure;BME280_temperature;BME280_humidity;BME280_pressure;Samples;Min_cycle;Max_cycle;Signal;HPM_P1;HPM_P2
2024/02/03 00:00:08;;;;;;;12.40;4.50;;;;;;;0.94;100.00;100867.71;104181;1275;60597;-82
2024/02/03 00:02:35;;;;;;;16.60;4.80;;;;;;;0.97;100.00;100862.52;104343;1277;61290;-82
2024/02/03 00:05:05;;;;;;;13.90;4.20;;;;;;;0.99;100.00;100863.50;104590;1276;74278;-80
2024/02/03 00:07:32;;;;;;;11.90;4.10;;;;;;;1.01;100.00;100861.23;104459;1279;63689;-84
2024/02/03 00:09:59;;;;;;;16.60;5.40;;;;;;;1.05;100.00;100860.30;104106;1277;72627;-82
2024/02/03 00:12:28;;;;;;;10.30;4.00;;;;;;;1.09;100.00;100857.33;104014;1282;60660;-81
2024/02/03 00:14:55;;;;;;;10.20;4.20;;;;;;;1.12;100.00;100859.16;104083;1274;60499;-81
2024/02/03 00:17:23;;;;;;;11.00;3.90;;;;;;;1.15;100.00;100862.04;104056;1275;72315;-82
2024/02/03 00:19:52;;;;;;;16.90;6.60;;;;;;;1.16;100.00;100858.74;104174;1277;62718;-84
2024/02/03 00:22:19;;;;;;;8.40;3.60;;;;;;;1.20;100.00;100864.19;104129;1277;72632;-83
2024/02/03 00:24:45;;;;;;;13.00;4.20;;;;;;;1.22;100.00;100863.12;104128;1276;62091;-81
2024/02/03 00:27:13;;;;;;;11.90;4.90;;;;;;;1.23;100.00;100864.47;104146;1275;60533;-80
2024/02/03 00:29:39;;;;;;;10.90;3.70;;;;;;;1.25;100.00;100860.48;104137;1279;73699;-83
2024/02/03 00:32:06;;;;;;;11.90;4.30;;;;;;;1.28;100.00;100861.64;105106;1280;62480;-84
2024/02/03 00:34:33;;;;;;;11.10;4.90;;;;;;;1.30;100.00;100857.98;104765;1275;71593;-81
2024/02/03 00:37:01;;;;;;;13.30;4.60;;;;;;;1.32;100.00;100856.92;105052;1277;60593;-83
2024/02/03 00:39:28;;;;;;;16.00;5.80;;;;;;;1.34;100.00;100854.81;104403;1279;60459;-84
2024/02/03 00:41:55;;;;;;;15.70;5.70;;;;;;;1.37;100.00;100854.94;104896;1277;73642;-83
2024/02/03 00:44:22;;;;;;;16.20;5.80;;;;;;;1.39;100.00;100850.42;105726;1276;61760;-82
2024/02/03 00:46:49;;;;;;;15.60;5.80;;;;;;;1.41;100.00;100852.63;104555;1277;71395;-82
2024/02/03 00:49:16;;;;;;;17.50;6.50;;;;;;;1.41;100.00;100850.55;104079;1276;60971;-83
2024/02/03 00:51:43;;;;;;;11.00;5.60;;;;;;;1.44;100.00;100847.23;104160;1279;60518;-84
2024/02/03 00:54:10;;;;;;;17.60;6.30;;;;;;;1.46;100.00;100845.27;104115;1277;72410;-83
2024/02/03 00:56:38;;;;;;;16.70;6.40;;;;;;;1.47;100.00;100845.45;104128;1277;63673;-81
2024/02/03 00:59:05;;;;;;;14.50;7.60;;;;;;;1.48;100.00;100844.23;104116;1279;72356;-81
2024/02/03 01:01:32;;;;;;;16.90;7.10;;;;;;;1.46;100.00;100843.21;104128;1279;60603;-83
2024/02/03 01:03:59;;;;;;;18.90;7.30;;;;;;;1.44;100.00;100841.86;104141;1277;60498;-83
2024/02/03 01:06:27;;;;;;;20.70;6.80;;;;;;;1.44;100.00;100837.55;104323;1277;73810;-83
2024/02/03 01:08:54;;;;;;;16.90;5.70;;;;;;;1.47;100.00;100838.05;104115;1279;63686;-82
2024/02/03 01:11:21;;;;;;;17.10;8.00;;;;;;;1.46;100.00;100833.39;104088;1276;71746;-81
2024/02/03 01:13:49;;;;;;;14.80;5.60;;;;;;;1.47;100.00;100830.63;104178;1279;61162;-81
2024/02/03 01:16:17;;;;;;;19.00;6.30;;;;;;;1.48;100.00;100831.13;104184;1276;60591;-81
2024/02/03 01:18:45;;;;;;;13.50;5.80;;;;;;;1.48;100.00;100824.77;104222;1279;73799;-81
2024/02/03 01:21:16;;;;;;;19.10;7.10;;;;;;;1.49;100.00;100822.67;104257;1276;62653;-82
2024/02/03 01:23:43;;;;;;;15.40;5.90;;;;;;;1.50;100.00;100818.33;104160;1276;72592;-82
2024/02/03 01:26:10;;;;;;;13.90;5.60;;;;;;;1.53;100.00;100817.07;104257;1275;61372;-82
2024/02/03 01:28:40;;;;;;;24.00;6.40;;;;;;;1.55;100.00;100818.75;104072;1275;60690;-82
2024/02/03 01:31:08;;;;;;;12.50;6.20;;;;;;;1.55;100.00;100816.00;104077;1277;73723;-81
2024/02/03 01:33:35;;;;;;;8.30;5.00;;;;;;;1.56;100.00;100814.08;103983;1276;62673;-83
2024/02/03 01:36:02;;;;;;;22.40;6.70;;;;;;;1.55;100.00;100807.91;104153;1279;72738;-83
2024/02/03 01:38:29;;;;;;;12.40;6.00;;;;;;;1.52;100.00;100809.33;104093;1278;61453;-82
2024/02/03 01:40:56;;;;;;;18.60;6.80;;;;;;;1.53;100.00;100808.30;104270;1276;61118;-82
2024/02/03 01:43:23;;;;;;;15.90;7.70;;;;;;;1.53;100.00;100807.08;104121;1276;73972;-82
2024/02/03 01:45:50;;;;;;;16.00;6.70;;;;;;;1.54;100.00;100805.69;104253;1279;63719;-81
2024/02/03 01:48:17;;;;;;;18.90;7.10;;;;;;;1.54;100.00;100802.57;105063;1280;72514;-81
2024/02/03 01:50:49;;;;;;;13.60;5.50;;;;;;;1.56;100.00;100799.96;104120;1279;61182;-82
2024/02/03 01:53:16;;;;;;;18.00;5.60;;;;;;;1.56;100.00;100797.89;104099;1277;60478;-84
2024/02/03 01:55:43;;;;;;;17.40;6.10;;;;;;;1.56;100.00;100798.08;104137;1276;73876;-81
2024/02/03 01:58:10;;;;;;;13.00;6.40;;;;;;;1.54;100.00;100794.83;104121;1279;64030;-82
2024/02/03 02:00:37;;;;;;;17.10;6.60;;;;;;;1.51;100.00;100798.16;104121;1276;71942;-82
2024/02/03 02:03:03;;;;;;;15.80;5.20;;;;;;;1.50;100.00;100799.04;104108;1276;60613;-82
2024/02/03 02:05:31;;;;;;;15.50;6.30;;;;;;;1.49;100.00;100797.16;104088;1277;60587;-82
2024/02/03 02:07:58;;;;;;;14.90;6.60;;;;;;;1.50;100.00;100795.26;104227;1276;73789;-84
2024/02/03 02:10:26;;;;;;;18.20;5.50;;;;;;;1.51;100.00;100794.54;104210;1277;62770;-82
2024/02/03 02:12:53;;;;;;;14.80;7.30;;;;;;;1.50;100.00;100794.73;104343;1277;72372;-81
2024/02/03 02:15:20;;;;;;;15.20;6.10;;;;;;;1.48;100.00;100797.70;104169;1276;60539;-84
2024/02/03 02:17:47;;;;;;;22.00;7.60;;;;;;;1.48;100.00;100799.95;104236;1277;60606;-81
2024/02/03 02:20:16;;;;;;;20.80;6.70;;;;;;;1.45;100.00;100800.86;104203;1277;73890;-81
2024/02/03 02:22:43;;;;;;;15.70;5.10;;;;;;;1.44;100.00;100803.11;105238;1276;63938;-83
2024/02/03 02:25:10;;;;;;;13.90;7.50;;;;;;;1.43;100.00;100802.44;106030;1276;71277;-83
2024/02/03 02:27:38;;;;;;;13.90;6.00;;;;;;;1.41;100.00;100802.48;104823;1275;61223;-83
2024/02/03 02:30:06;;;;;;;13.30;5.70;;;;;;;1.38;100.00;100805.30;104381;1277;60607;-82
2024/02/03 02:32:33;;;;;;;17.40;6.20;;;;;;;1.35;100.00;100802.62;104119;1276;73980;-81
2024/02/03 02:37:53;;;;;;;15.40;5.70;;;;;;;1.26;100.00;100805.01;102753;1288;614237;-85
2024/02/03 02:40:20;;;;;;;16.70;5.50;;;;;;;1.20;100.00;100805.13;105046;1268;59362;-81
2024/02/03 02:42:47;;;;;;;17.60;6.20;;;;;;;1.17;100.00;100800.02;105465;1258;60340;-81
2024/02/03 02:45:15;;;;;;;12.00;5.60;;;;;;;1.13;100.00;100796.48;105354;1259;70796;-84
2024/02/03 02:47:42;;;;;;;14.90;5.90;;;;;;;1.09;100.00;100796.89;105519;1257;62731;-83
2024/02/03 02:50:09;;;;;;;22.90;5.80;;;;;;;1.05;100.00;100799.88;105210;1255;302206;-83
2024/02/03 02:52:36;;;;;;;9.50;5.00;;;;;;;1.02;100.00;100794.26;105849;1255;61028;-84
2024/02/03 02:55:03;;;;;;;15.90;5.50;;;;;;;0.98;100.00;100789.68;107231;1256;60497;-82
2024/02/03 02:57:31;;;;;;;17.00;5.70;;;;;;;0.95;100.00;100778.89;106288;1256;72257;-83
2024/02/03 02:59:58;;;;;;;13.90;5.20;;;;;;;0.93;100.00;100779.10;107148;1256;63852;-83
2024/02/03 03:02:25;;;;;;;16.40;4.70;;;;;;;0.91;100.00;100776.23;105707;1259;71716;-82
2024/02/03 03:04:52;;;;;;;15.90;6.30;;;;;;;0.88;100.00;100774.19;106056;1256;59707;-80
2024/02/03 03:07:22;;;;;;;15.10;4.50;;;;;;;0.83;100.00;100768.60;106896;1254;59697;-81
2024/02/03 03:09:49;;;;;;;14.30;4.80;;;;;;;0.77;100.00;100772.48;106233;1254;72835;-82
2024/02/03 03:12:16;;;;;;;15.70;5.30;;;;;;;0.72;100.00;100767.75;105794;1254;62374;-80
2024/02/03 03:14:43;;;;;;;10.30;4.50;;;;;;;0.70;100.00;100767.78;105638;1254;71316;-83
2024/02/03 03:17:10;;;;;;;14.90;5.10;;;;;;;0.67;100.00;100768.36;105862;1259;60181;-82
2024/02/03 03:19:37;;;;;;;15.00;4.50;;;;;;;0.65;100.00;100763.75;105763;1257;59255;-82
2024/02/03 03:22:05;;;;;;;13.90;4.80;;;;;;;0.62;100.00;100759.83;106077;1259;72240;-81
2024/02/03 03:24:33;;;;;;;15.10;6.70;;;;;;;0.60;100.00;100757.46;105891;1259;63815;-80
2024/02/03 03:26:59;;;;;;;12.00;4.70;;;;;;;0.58;100.00;100753.20;105746;1259;72652;-81
2024/02/03 03:29:26;;;;;;;16.40;5.40;;;;;;;0.58;100.00;100755.11;105989;1251;61031;-83
2024/02/03 03:31:53;;;;;;;11.60;4.90;;;;;;;0.58;100.00;100758.02;105940;1254;59523;-83
2024/02/03 03:34:21;;;;;;;7.50;4.30;;;;;;;0.59;100.00;100754.38;106147;1250;72872;-83
2024/02/03 03:36:47;;;;;;;14.90;5.50;;;;;;;0.61;100.00;100760.88;106121;1250;64033;-82
2024/02/03 03:39:15;;;;;;;16.90;5.20;;;;;;;0.65;100.00;100758.77;105968;1250;71205;-84
2024/02/03 03:41:41;;;;;;;17.00;5.20;;;;;;;0.69;100.00;100758.52;106009;1254;61019;-82
2024/02/03 03:44:09;;;;;;;12.60;5.50;;;;;;;0.72;100.00;100754.87;105888;1250;60272;-81
2024/02/03 03:46:35;;;;;;;10.10;6.10;;;;;;;0.74;100.00;100761.86;105950;1251;72938;-83
2024/02/03 03:49:03;;;;;;;18.70;6.50;;;;;;;0.77;100.00;100760.78;106043;1253;62541;-83
2024/02/03 03:51:31;;;;;;;8.20;4.10;;;;;;;0.79;100.00;100754.72;106027;1253;71855;-83
2024/02/03 03:54:00;;;;;;;16.00;5.70;;;;;;;0.81;100.00;100753.33;106052;1252;61082;-82
2024/02/03 03:56:27;;;;;;;14.10;6.20;;;;;;;0.81;100.00;100752.30;106074;1254;59695;-83
2024/02/03 03:58:54;;;;;;;14.40;4.80;;;;;;;0.80;100.00;100752.98;106073;1254;71914;-83
2024/02/03 04:01:21;;;;;;;14.80;5.20;;;;;;;0.82;100.00;100754.85;105994;1256;62575;-83
2024/02/03 04:03:48;;;;;;;18.00;6.20;;;;;;;0.83;100.00;100752.25;106009;1250;71427;-83
2024/02/03 04:06:15;;;;;;;13.00;6.80;;;;;;;0.84;100.00;100749.48;106087;1254;60004;-84
2024/02/03 04:08:42;;;;;;;16.00;5.40;;;;;;;0.87;100.00;100746.49;106002;1250;60407;-83
2024/02/03 04:11:09;;;;;;;16.50;6.70;;;;;;;0.89;100.00;100744.39;106172;1254;73108;-82
2024/02/03 04:13:39;;;;;;;15.50;5.10;;;;;;;0.91;100.00;100742.99;106853;1257;62437;-81
2024/02/03 04:16:06;;;;;;;10.50;4.90;;;;;;;0.91;100.00;100743.68;106703;1256;72415;-83
2024/02/03 04:18:35;;;;;;;17.70;8.50;;;;;;;0.89;100.00;100734.07;106832;1254;59670;-81
2024/02/03 04:21:03;;;;;;;24.30;8.80;;;;;;;0.89;100.00;100727.53;106090;1254;59541;-84
2024/02/03 04:23:31;;;;;;;11.20;5.50;;;;;;;0.90;100.00;100720.64;106004;1256;73038;-85
2024/02/03 04:25:58;;;;;;;17.80;5.70;;;;;;;0.91;100.00;100725.96;106041;1254;63648;-83
2024/02/03 04:28:25;;;;;;;14.40;4.60;;;;;;;0.91;100.00;100722.16;106094;1254;72549;-82
2024/02/03 04:30:52;;;;;;;15.90;5.50;;;;;;;0.90;100.00;100719.78;106221;1250;59740;-86
2024/02/03 04:33:19;;;;;;;15.30;6.80;;;;;;;0.89;100.00;100714.81;106192;1250;59895;-84
2024/02/03 04:35:46;;;;;;;13.80;4.30;;;;;;;0.89;100.00;100712.05;106126;1250;71820;-84
2024/02/03 04:38:13;;;;;;;9.80;4.00;;;;;;;0.86;100.00;100708.30;106214;1250;64210;-84
2024/02/03 04:40:41;;;;;;;10.90;5.40;;;;;;;0.85;100.00;100701.10;106121;1250;71576;-84
2024/02/03 04:43:08;;;;;;;16.70;6.30;;;;;;;0.85;100.00;100698.88;106131;1254;61201;-84
2024/02/03 04:45:35;;;;;;;11.90;5.80;;;;;;;0.85;100.00;100700.08;106047;1254;59653;-84
2024/02/03 04:48:03;;;;;;;14.20;5.80;;;;;;;0.86;100.00;100701.77;106018;1250;71892;-83
2024/02/03 04:50:30;;;;;;;16.60;5.90;;;;;;;0.88;100.00;100697.96;106343;1254;63652;-84
2024/02/03 04:52:57;;;;;;;14.50;4.80;;;;;;;0.87;100.00;100694.70;106089;1254;72710;-85
2024/02/03 04:55:24;;;;;;;16.70;4.70;;;;;;;0.85;100.00;100691.13;106124;1254;59785;-83
2024/02/03 04:57:50;;;;;;;11.80;4.30;;;;;;;0.82;100.00;100686.00;106163;1254;60302;-82
2024/02/03 05:00:17;;;;;;;13.30;4.90;;;;;;;0.79;100.00;100687.95;106053;1254;73066;-83
2024/02/03 05:02:44;;;;;;;13.90;4.70;;;;;;;0.77;100.00;100693.50;106162;1254;62913;-83
2024/02/03 05:05:11;;;;;;;16.00;5.60;;;;;;;0.77;100.00;100689.04;106000;1250;71066;-83
2024/02/03 05:07:38;;;;;;;15.90;5.00;;;;;;;0.76;100.00;100683.04;106123;1250;61086;-83
2024/02/03 05:10:06;;;;;;;15.20;4.90;;;;;;;0.75;100.00;100689.08;106102;1250;61137;-83
2024/02/03 05:12:33;;;;;;;15.00;4.90;;;;;;;0.73;100.00;100683.60;106014;1250;71853;-81
2024/02/03 05:15:00;;;;;;;15.60;4.80;;;;;;;0.69;100.00;100683.52;106078;1253;63922;-83
2024/02/03 05:17:32;;;;;;;14.00;4.20;;;;;;;0.66;100.00;100681.85;107643;1250;72654;-81
2024/02/03 05:19:59;;;;;;;10.80;4.30;;;;;;;0.64;100.00;100677.40;106855;1251;59907;-83
2024/02/03 05:22:27;;;;;;;16.70;4.70;;;;;;;0.63;100.00;100681.04;106150;1255;59701;-82
2024/02/03 05:24:54;;;;;;;14.40;5.40;;;;;;;0.63;100.00;100681.20;106257;1249;70738;-80
2024/02/03 05:27:23;;;;;;;14.70;5.10;;;;;;;0.61;100.00;100681.75;107169;1250;63909;-82
2024/02/03 05:29:50;;;;;;;18.10;9.20;;;;;;;0.61;100.00;100683.48;108560;1251;71495;-81
2024/02/03 05:32:17;;;;;;;19.60;6.20;;;;;;;0.60;100.00;100681.77;106615;1254;61697;-81
2024/02/03 05:34:44;;;;;;;14.80;6.20;;;;;;;0.60;100.00;100677.11;106103;1250;60241;-85
2024/02/03 05:37:11;;;;;;;19.00;6.50;;;;;;;0.62;100.00;100679.84;105922;1255;73046;-82
2024/02/03 05:39:38;;;;;;;15.10;5.60;;;;;;;0.64;100.00;100670.88;106296;1251;63506;-84
2024/02/03 05:42:06;;;;;;;19.20;6.80;;;;;;;0.65;100.00;100667.76;106252;1250;72532;-81
2024/02/03 05:44:33;;;;;;;19.40;7.60;;;;;;;0.65;100.00;100668.63;106049;1254;61120;-81
2024/02/03 05:47:00;;;;;;;30.70;10.50;;;;;;;0.65;100.00;100669.48;105975;1251;60388;-82
2024/02/03 05:49:27;;;;;;;35.00;14.20;;;;;;;0.64;100.00;100671.89;106035;1254;70860;-83
2024/02/03 05:51:54;;;;;;;27.80;10.40;;;;;;;0.65;100.00;100675.66;106061;1254;63341;-82
2024/02/03 05:54:21;;;;;;;18.80;8.20;;;;;;;0.65;100.00;100670.52;105969;1250;72686;-82
2024/02/03 05:56:48;;;;;;;14.40;7.10;;;;;;;0.64;100.00;100665.20;106047;1254;60851;-85
2024/02/03 05:59:15;;;;;;;16.40;6.80;;;;;;;0.63;100.00;100670.20;106038;1250;60178;-82
2024/02/03 06:02:01;;;;;;;19.20;8.10;;;;;;;0.63;100.00;100669.52;106149;1250;72978;-83
2024/02/03 06:04:29;;;;;;;12.30;6.10;;;;;;;0.63;100.00;100667.27;106060;1256;63826;-84
2024/02/03 06:06:56;;;;;;;19.30;6.90;;;;;;;0.62;100.00;100670.04;106066;1251;72470;-85
2024/02/03 06:09:25;;;;;;;17.40;6.00;;;;;;;0.64;100.00;100670.86;105753;1253;60919;-84
2024/02/03 06:11:52;;;;;;;13.70;6.10;;;;;;;0.69;100.00;100668.89;105863;1253;60285;-82
2024/02/03 06:14:19;;;;;;;22.50;8.20;;;;;;;0.74;100.00;100661.73;105860;1256;71812;-83
2024/02/03 06:16:47;;;;;;;21.80;7.80;;;;;;;0.79;100.00;100666.96;105847;1257;61713;-84
2024/02/03 06:19:13;;;;;;;21.60;7.00;;;;;;;0.87;100.00;100661.14;105868;1257;72641;-82
2024/02/03 06:21:41;;;;;;;19.60;7.70;;;;;;;0.98;100.00;100656.45;105730;1258;61174;-83
2024/02/03 06:24:10;;;;;;;20.40;6.30;;;;;;;1.10;100.00;100655.02;106392;1258;59837;-82
2024/02/03 06:27:05;;;;;;;17.10;6.20;;;;;;;1.18;100.00;100650.18;105882;1254;72829;-83
2024/02/03 06:29:32;;;;;;;19.10;5.30;;;;;;;1.23;100.00;100646.13;106074;1258;63669;-83
2024/02/03 06:31:59;;;;;;;19.20;6.00;;;;;;;1.29;100.00;100638.95;105823;1253;71881;-83
2024/02/03 06:34:26;;;;;;;16.30;6.30;;;;;;;1.32;100.00;100639.39;105949;1253;59873;-81
2024/02/03 06:36:54;;;;;;;14.90;6.00;;;;;;;1.36;100.00;100630.69;105685;1253;59776;-84
2024/02/03 06:39:21;;;;;;;15.90;6.80;;;;;;;1.41;100.00;100629.38;105716;1261;73147;-83
2024/02/03 06:41:48;;;;;;;16.30;7.20;;;;;;;1.47;100.00;100635.11;106181;1253;62610;-84
2024/02/03 06:44:15;;;;;;;16.90;7.20;;;;;;;1.54;100.00;100630.65;107836;1250;72447;-83
2024/02/03 06:46:42;;;;;;;20.10;8.80;;;;;;;1.60;100.00;100630.66;107516;1250;60192;-83
2024/02/03 06:49:09;;;;;;;21.50;8.30;;;;;;;1.70;100.00;100632.34;107958;1252;60380;-83
2024/02/03 06:51:37;;;;;;;16.40;6.60;;;;;;;1.76;100.00;100624.80;107851;1250;73852;-85
2024/02/03 06:54:04;;;;;;;20.30;8.40;;;;;;;1.80;100.00;100619.17;106197;1250;62763;-85
2024/02/03 06:56:32;;;;;;;18.10;7.30;;;;;;;1.82;100.00;100612.40;106360;1250;72661;-83
2024/02/03 06:58:59;;;;;;;19.30;7.40;;;;;;;1.85;100.00;100607.66;106176;1250;60550;-84
2024/02/03 07:01:26;;;;;;;27.20;9.00;;;;;;;1.92;100.00;100599.75;106206;1250;60431;-83
2024/02/03 07:03:53;;;;;;;19.30;8.60;;;;;;;1.99;100.00;100594.92;106170;1251;73840;-81
2024/02/03 07:06:20;;;;;;;21.90;8.60;;;;;;;2.08;100.00;100595.03;105866;1250;63077;-85
2024/02/03 07:08:48;;;;;;;16.90;9.50;;;;;;;2.19;100.00;100592.20;106343;1255;70884;-87
2024/02/03 07:11:16;;;;;;;26.00;10.30;;;;;;;2.28;100.00;100595.59;106157;1250;61116;-83
2024/02/03 07:14:11;;;;;;;16.90;7.30;;;;;;;2.36;100.00;100589.85;106655;1250;60393;-84
2024/02/03 07:16:41;;;;;;;27.40;11.80;;;;;;;2.44;100.00;100592.55;106905;1256;73772;-80
2024/02/03 07:19:08;;;;;;;21.20;9.40;;;;;;;2.48;100.00;100596.91;106839;1252;62386;-81
2024/02/03 07:21:35;;;;;;;18.20;9.00;;;;;;;2.54;100.00;100589.02;106748;1250;71653;-82
2024/02/03 07:24:03;;;;;;;23.90;9.80;;;;;;;2.58;100.00;100584.06;106583;1259;60872;-83
2024/02/03 07:26:30;;;;;;;18.80;8.40;;;;;;;2.65;100.00;100580.23;106406;1250;60376;-83
2024/02/03 07:28:57;;;;;;;20.70;7.50;;;;;;;2.74;100.00;100575.84;106401;1250;71503;-83
2024/02/03 07:31:28;;;;;;;18.00;7.20;;;;;;;2.82;100.00;100576.65;106161;1250;62918;-84
2024/02/03 07:33:58;;;;;;;17.60;8.00;;;;;;;2.87;100.00;100572.89;106048;1250;71710;-85
2024/02/03 07:36:25;;;;;;;19.20;7.90;;;;;;;2.88;100.00;100571.81;106250;1251;60520;-82
2024/02/03 07:38:54;;;;;;;23.20;8.40;;;;;;;2.91;100.00;100566.73;106393;1250;60464;-82
2024/02/03 07:41:21;;;;;;;17.20;7.50;;;;;;;2.94;100.00;100563.20;107037;1250;72998;-83
2024/02/03 07:43:48;;;;;;;13.70;7.10;;;;;;;2.96;100.00;100558.83;107830;1250;63788;-84
2024/02/03 07:46:16;;;;;;;19.60;8.30;;;;;;;2.99;100.00;100554.08;107670;1250;70443;-82
2024/02/03 07:48:44;;;;;;;16.90;8.30;;;;;;;3.03;100.00;100551.52;107025;1251;61136;-84
2024/02/03 07:51:10;;;;;;;17.00;7.70;;;;;;;3.10;100.00;100551.14;107459;1250;59275;-82
2024/02/03 07:53:38;;;;;;;19.40;8.10;;;;;;;3.14;100.00;100544.81;106840;1254;72510;-84
2024/02/03 07:56:05;;;;;;;17.50;8.20;;;;;;;3.19;100.00;100548.12;106332;1251;62995;-83
2024/02/03 07:58:32;;;;;;;21.40;8.00;;;;;;;3.27;100.00;100550.98;106637;1254;72446;-89
2024/02/03 08:01:00;;;;;;;15.70;7.00;;;;;;;3.35;100.00;100545.38;107061;1250;61144;-81
2024/02/03 08:03:28;;;;;;;22.30;8.10;;;;;;;3.42;100.00;100549.98;107417;1250;60491;-82
2024/02/03 08:05:55;;;;;;;18.10;8.40;;;;;;;3.51;100.00;100549.37;106533;1256;73738;-83
2024/02/03 08:08:23;;;;;;;11.40;7.80;;;;;;;3.59;100.00;100545.98;106371;1250;62550;-83
2024/02/03 08:11:18;;;;;;;20.50;7.60;;;;;;;3.66;100.00;100549.92;106949;1250;71692;-84
2024/02/03 08:13:59;;;;;;;14.90;6.10;;;;;;;3.71;100.00;100548.88;107046;1250;60443;-83
2024/02/03 08:16:29;;;;;;;18.10;7.00;;;;;;;3.70;100.00;100541.65;107109;1250;61314;-84
2024/02/03 08:19:05;;;;;;;22.80;7.70;;;;;;;3.67;100.00;100541.92;106483;1250;72513;-83
2024/02/03 08:21:45;;;;;;;17.90;7.50;;;;;;;3.59;100.00;100536.84;106743;1256;62464;-84
2024/02/03 08:24:20;;;;;;;17.40;7.70;;;;;;;3.52;100.00;100532.38;106794;1254;71153;-84
2024/02/03 08:26:48;;;;;;;14.60;7.10;;;;;;;3.48;100.00;100528.20;107387;1250;61149;-83
2024/02/03 08:29:16;;;;;;;18.20;7.80;;;;;;;3.44;100.00;100524.86;107167;1250;60466;-84
2024/02/03 08:31:43;;;;;;;21.90;7.50;;;;;;;3.41;100.00;100519.95;106904;1250;74061;-83
2024/02/03 08:34:14;;;;;;;16.60;7.10;;;;;;;3.34;100.00;100513.61;107348;1254;63819;-82
2024/02/03 08:36:41;;;;;;;18.90;6.30;;;;;;;3.25;100.00;100512.85;106683;1250;74059;-85
2024/02/03 08:39:09;;;;;;;15.40;6.10;;;;;;;3.18;100.00;100512.56;107008;1251;61126;-86
2024/02/03 08:41:37;;;;;;;16.90;8.30;;;;;;;3.09;100.00;100509.55;107105;1250;60431;-82
2024/02/03 08:44:07;;;;;;;13.20;5.80;;;;;;;3.01;100.00;100508.44;106750;1250;73894;-82
2024/02/03 08:46:35;;;;;;;15.20;5.00;;;;;;;2.90;100.00;100510.83;106533;1250;64227;-82
2024/02/03 08:49:03;;;;;;;11.00;5.20;;;;;;;2.82;100.00;100503.80;107033;1250;70949;-85
2024/02/03 08:51:30;;;;;;;15.20;6.00;;;;;;;2.76;100.00;100500.88;106859;1253;60578;-82
2024/02/03 08:53:57;;;;;;;15.00;5.60;;;;;;;2.69;100.00;100498.15;107118;1250;60390;-85
2024/02/03 08:56:32;;;;;;;16.40;6.00;;;;;;;2.62;100.00;100493.52;106767;1250;73913;-83
2024/02/03 08:58:59;;;;;;;;;;;;;;;2.56;100.00;100489.57;106866;1251;65205;-83
2024/02/03 09:01:26;;;;;;;13.90;5.40;;;;;;;2.49;100.00;100493.73;107714;1250;71890;-85
2024/02/03 09:03:53;;;;;;;17.00;5.20;;;;;;;2.47;100.00;100484.99;106956;1257;60630;-86
2024/02/03 09:06:21;;;;;;;25.80;15.70;;;;;;;2.47;100.00;100484.11;107399;1251;60461;-85
2024/02/03 09:08:49;;;;;;;12.50;6.90;;;;;;;2.48;100.00;100481.50;107543;1250;72857;-84
2024/02/03 09:11:21;;;;;;;15.60;6.00;;;;;;;2.45;100.00;100476.24;107687;1250;62887;-84
2024/02/03 09:13:56;;;;;;;17.60;5.50;;;;;;;2.44;100.00;100483.02;107829;1251;72838;-84
2024/02/03 09:16:29;;;;;;;16.80;5.50;;;;;;;2.42;100.00;100493.08;108256;1250;60603;-82
2024/02/03 09:18:57;;;;;;;15.30;5.80;;;;;;;2.41;100.00;100488.44;107174;1250;61587;-86
2024/02/03 09:21:26;;;;;;;18.70;6.30;;;;;;;2.42;100.00;100487.37;107043;1250;73889;-83
2024/02/03 09:23:53;;;;;;;19.60;6.70;;;;;;;2.41;100.00;100483.24;107840;1250;62742;-84
2024/02/03 09:26:20;;;;;;;23.40;6.40;;;;;;;2.42;100.00;100485.99;106820;1250;72559;-86
2024/02/03 09:29:07;;;;;;;17.30;6.40;;;;;;;2.42;100.00;100486.68;107256;1250;61334;-85
2024/02/03 09:31:35;;;;;;;15.10;7.10;;;;;;;2.42;100.00;100488.05;106620;1250;60553;-85
2024/02/03 09:34:19;;;;;;;21.40;6.70;;;;;;;2.42;100.00;100477.71;106859;1252;73653;-84
2024/02/03 09:36:49;;;;;;;20.90;6.60;;;;;;;2.41;100.00;100473.41;107318;1250;62408;-83
2024/02/03 09:39:34;;;;;;;16.90;7.70;;;;;;;2.39;100.00;100468.99;108347;1256;71509;-82
2024/02/03 09:42:02;;;;;;;22.20;6.50;;;;;;;2.36;100.00;100465.81;108019;1250;61137;-85
2024/02/03 09:44:36;;;;;;;14.10;5.70;;;;;;;2.36;100.00;100459.59;107762;1257;60414;-86
2024/02/03 09:47:06;;;;;;;10.90;5.80;;;;;;;2.33;100.00;100453.29;107375;1250;74057;-84
2024/02/03 09:49:35;;;;;;;21.00;7.50;;;;;;;2.34;100.00;100453.44;107459;1255;62553;-85
2024/02/03 09:52:04;;;;;;;14.90;7.40;;;;;;;2.35;100.00;100446.18;106782;1250;71317;-84
2024/02/03 09:54:31;;;;;;;23.10;9.20;;;;;;;2.35;100.00;100440.98;106589;1250;61027;-81
2024/02/03 09:56:59;;;;;;;18.70;8.00;;;;;;;2.37;100.00;100434.04;106649;1254;60791;-85
2024/02/03 09:59:28;;;;;;;17.50;7.00;;;;;;;2.39;100.00;100429.49;107039;1250;71420;-82
2024/02/03 10:01:58;;;;;;;19.00;6.50;;;;;;;2.37;100.00;100426.61;108081;1250;62823;-84
2024/02/03 10:04:36;;;;;;;16.80;7.00;;;;;;;2.37;100.00;100427.12;108069;1250;74323;-84
2024/02/03 10:07:05;;;;;;;17.50;6.80;;;;;;;2.38;100.00;100424.69;106647;1255;61163;-84
2024/02/03 10:09:33;;;;;;;26.70;11.90;;;;;;;2.38;100.00;100421.40;106601;1250;60443;-85
2024/02/03 10:12:04;;;;;;;18.40;9.30;;;;;;;2.40;100.00;100414.11;106706;1250;72618;-84
2024/02/03 10:14:32;;;;;;;17.80;9.00;;;;;;;2.39;100.00;100408.42;108137;1250;63741;-84
2024/02/03 10:16:59;;;;;;;27.20;9.70;;;;;;;2.37;100.00;100401.95;107508;1251;73307;-85
2024/02/03 10:19:26;;;;;;;20.90;8.10;;;;;;;2.34;100.00;100397.36;107545;1256;59633;-84
2024/02/03 10:21:54;;;;;;;18.70;6.90;;;;;;;2.33;100.00;100397.42;106801;1256;60528;-85
2024/02/03 10:24:24;;;;;;;18.20;8.00;;;;;;;2.29;100.00;100394.09;106849;1250;72501;-83
2024/02/03 10:27:01;;;;;;;17.30;8.90;;;;;;;2.23;100.00;100380.10;106522;1256;61533;-82
2024/02/03 10:29:28;;;;;;;17.20;9.60;;;;;;;2.20;100.00;100380.88;107749;1250;73784;-84
2024/02/03 10:31:55;;;;;;;12.60;7.40;;;;;;;2.17;100.00;100374.77;107816;1251;60543;-85
2024/02/03 10:34:26;;;;;;;14.90;6.10;;;;;;;2.13;100.00;100367.11;107219;1250;59340;-85
2024/02/03 10:36:54;;;;;;;18.20;9.20;;;;;;;2.07;100.00;100361.75;106880;1256;73845;-86
2024/02/03 10:39:25;;;;;;;19.30;9.10;;;;;;;2.04;100.00;100353.05;106776;1255;63748;-86
2024/02/03 10:41:54;;;;;;;15.30;7.70;;;;;;;2.03;100.00;100343.62;107351;1251;73178;-82
2024/02/03 10:44:31;;;;;;;17.40;8.60;;;;;;;2.00;100.00;100332.86;109603;1250;60080;-86
2024/02/03 10:48:17;;;;;;;18.80;7.70;;;;;;;1.97;100.00;100321.56;109593;1250;59176;-85
2024/02/03 10:51:28;;;;;;;15.00;6.60;;;;;;;1.93;100.00;100309.26;109315;1250;72691;-85
2024/02/03 10:54:21;;;;;;;21.80;7.80;;;;;;;1.87;100.00;100301.52;108834;1253;63963;-83
2024/02/03 10:56:50;;;;;;;16.70;7.80;;;;;;;1.89;100.00;100301.80;109200;1253;72553;-86
2024/02/03 10:59:23;;;;;;;17.00;8.30;;;;;;;1.89;100.00;100297.32;106178;1256;60917;-85
2024/02/03 11:01:50;;;;;;;23.10;7.80;;;;;;;1.85;100.00;100292.77;107754;1253;61752;-86
2024/02/03 11:04:19;;;;;;;20.40;8.00;;;;;;;1.83;100.00;100291.45;108202;1253;71341;-84
2024/02/03 11:06:47;;;;;;;20.70;9.70;;;;;;;1.80;100.00;100285.16;107412;1253;63749;-85
2024/02/03 11:09:19;;;;;;;28.50;10.20;;;;;;;1.80;100.00;100279.64;106025;1256;71717;-88
2024/02/03 11:11:53;;;;;;;17.90;8.90;;;;;;;1.77;100.00;100275.59;105903;1259;61221;-84
2024/02/03 11:14:23;;;;;;;19.10;8.60;;;;;;;1.73;100.00;100264.17;105754;1258;60457;-82
2024/02/03 11:16:52;;;;;;;19.10;9.20;;;;;;;1.67;100.00;100259.70;106257;1254;73010;-84
2024/02/03 11:19:26;;;;;;;22.30;8.40;;;;;;;1.60;100.00;100250.92;106284;1259;64706;-84